sensor_id;sensor_type;location;lat;lon;timestamp;pressure;altitude;pressure_sealevel;temperature;humidity
11212;BME280;5663;50.864;12.096;2023-01-13T00:00:23;98611.47;;;11.43;68.79
11212;BME280;5663;50.864;12.096;2023-01-13T00:02:51;98592.78;;;11.37;68.69
11212;BME280;5663;50.864;12.096;2023-01-13T00:05:20;98596.34;;;11.35;68.58
11212;BME280;5663;50.864;12.096;2023-01-13T00:07:48;98585.31;;;11.32;68.79
11212;BME280;5663;50.864;12.096;2023-01-13T00:10:15;98601.88;;;11.44;68.69
11212;BME280;5663;50.864;12.096;2023-01-13T00:12:44;98561.16;;;11.17;68.79
11212;BME280;5663;50.864;12.096;2023-01-13T00:15:13;98592.41;;;11.43;68.71
11212;BME280;5663;50.864;12.096;2023-01-13T00:17:41;98582.94;;;11.42;68.69
11212;BME280;5663;50.864;12.096;2023-01-13T00:20:10;98578.63;;;11.41;68.45
11212;BME280;5663;50.864;12.096;2023-01-13T00:22:38;98582.69;;;11.45;68.43
11212;BME280;5663;50.864;12.096;2023-01-13T00:25:06;98586.25;;;11.44;68.58
11212;BME280;5663;50.864;12.096;2023-01-13T00:27:35;98567.19;;;11.43;68.26
11212;BME280;5663;50.864;12.096;2023-01-13T00:30:05;98568.47;;;11.38;68.17
11212;BME280;5663;50.864;12.096;2023-01-13T00:32:34;98572.53;;;11.42;68.29
11212;BME280;5663;50.864;12.096;2023-01-13T00:35:03;98568.22;;;11.41;68.19
11212;BME280;5663;50.864;12.096;2023-01-13T00:37:31;98567.50;;;11.39;68.26
11212;BME280;5663;50.864;12.096;2023-01-13T00:39:58;98571.06;;;11.38;68.25
11212;BME280;5663;50.864;12.096;2023-01-13T00:42:28;98559.50;;;11.42;68.08
11212;BME280;5663;50.864;12.096;2023-01-13T00:45:29;98567.41;;;11.40;68.09
11212;BME280;5663;50.864;12.096;2023-01-13T00:47:57;98574.19;;;11.43;67.96
11212;BME280;5663;50.864;12.096;2023-01-13T00:50:25;98534.91;;;11.20;67.91
11212;BME280;5663;50.864;12.096;2023-01-13T00:52:54;98575.63;;;11.47;68.15
11212;BME280;5663;50.864;12.096;2023-01-13T00:55:23;98573.03;;;11.47;67.94
11212;BME280;5663;50.864;12.096;2023-01-13T00:57:51;98571.16;;;11.49;67.80
11212;BME280;5663;50.864;12.096;2023-01-13T01:00:19;98574.69;;;11.48;67.85
11212;BME280;5663;50.864;12.096;2023-01-13T01:02:49;98573.75;;;11.49;67.89
11212;BME280;5663;50.864;12.096;2023-01-13T01:05:17;98576.16;;;11.52;67.84
11212;BME280;5663;50.864;12.096;2023-01-13T01:07:44;98579.50;;;11.54;67.85
11212;BME280;5663;50.864;12.096;2023-01-13T01:10:13;98576.78;;;11.55;67.76
11212;BME280;5663;50.864;12.096;2023-01-13T01:12:41;98573.22;;;11.56;67.86
11212;BME280;5663;50.864;12.096;2023-01-13T01:15:10;98577.63;;;11.56;67.83
11212;BME280;5663;50.864;12.096;2023-01-13T01:17:39;98568.88;;;11.57;67.77
11212;BME280;5663;50.864;12.096;2023-01-13T01:20:10;98573.16;;;11.58;67.63
11212;BME280;5663;50.864;12.096;2023-01-13T01:22:38;98563.56;;;11.58;67.31
11212;BME280;5663;50.864;12.096;2023-01-13T01:25:07;98564.50;;;11.57;67.64
11212;BME280;5663;50.864;12.096;2023-01-13T01:28:12;98576.59;;;11.58;67.35
11212;BME280;5663;50.864;12.096;2023-01-13T01:30:40;98543.97;;;11.40;67.55
11212;BME280;5663;50.864;12.096;2023-01-13T01:33:08;98548.47;;;11.51;67.58
11212;BME280;5663;50.864;12.096;2023-01-13T01:35:39;98561.78;;;11.59;67.29
11212;BME280;5663;50.864;12.096;2023-01-13T01:38:09;98553.03;;;11.60;67.41
11212;BME280;5663;50.864;12.096;2023-01-13T01:40:39;98563.44;;;11.60;67.46
11212;BME280;5663;50.864;12.096;2023-01-13T01:43:12;98562.63;;;11.59;67.35
11212;BME280;5663;50.864;12.096;2023-01-13T01:45:57;98554.81;;;11.59;67.26
11212;BME280;5663;50.864;12.096;2023-01-13T01:48:27;98555.75;;;11.58;67.45
11212;BME280;5663;50.864;12.096;2023-01-13T01:50:58;98554.91;;;11.58;67.52
11212;BME280;5663;50.864;12.096;2023-01-13T01:53:27;98548.75;;;11.59;67.42
11212;BME280;5663;50.864;12.096;2023-01-13T01:55:56;98552.13;;;11.61;67.47
11212;BME280;5663;50.864;12.096;2023-01-13T01:58:28;98553.84;;;11.60;67.42
11212;BME280;5663;50.864;12.096;2023-01-13T02:00:59;98552.19;;;11.59;67.63
11212;BME280;5663;50.864;12.096;2023-01-13T02:03:28;98539.91;;;11.49;67.32
11212;BME280;5663;50.864;12.096;2023-01-13T02:05:58;98548.06;;;11.57;67.71
11212;BME280;5663;50.864;12.096;2023-01-13T02:08:26;98540.94;;;11.59;67.80
11212;BME280;5663;50.864;12.096;2023-01-13T02:10:54;98538.34;;;11.59;67.59
11212;BME280;5663;50.864;12.096;2023-01-13T02:13:22;98538.22;;;11.60;67.60
11212;BME280;5663;50.864;12.096;2023-01-13T02:15:54;98538.34;;;11.59;67.74
11212;BME280;5663;50.864;12.096;2023-01-13T02:18:35;98552.00;;;11.63;67.54
11212;BME280;5663;50.864;12.096;2023-01-13T02:21:28;98539.09;;;11.61;67.54
11212;BME280;5663;50.864;12.096;2023-01-13T02:24:44;98537.19;;;11.63;67.63
11212;BME280;5663;50.864;12.096;2023-01-13T02:27:43;98525.53;;;11.56;67.48
11212;BME280;5663;50.864;12.096;2023-01-13T02:30:24;98522.00;;;11.57;67.64
11212;BME280;5663;50.864;12.096;2023-01-13T02:33:20;98530.97;;;11.66;67.72
11212;BME280;5663;50.864;12.096;2023-01-13T02:35:58;98533.44;;;11.67;67.68
11212;BME280;5663;50.864;12.096;2023-01-13T02:38:33;98514.72;;;11.62;67.73
11212;BME280;5663;50.864;12.096;2023-01-13T02:41:04;98518.84;;;11.65;67.79
11212;BME280;5663;50.864;12.096;2023-01-13T02:43:49;98512.81;;;11.64;68.17
11212;BME280;5663;50.864;12.096;2023-01-13T02:46:40;98517.19;;;11.64;68.16
11212;BME280;5663;50.864;12.096;2023-01-13T02:49:15;98507.41;;;11.67;68.01
11212;BME280;5663;50.864;12.096;2023-01-13T02:51:46;98507.41;;;11.67;68.25
11212;BME280;5663;50.864;12.096;2023-01-13T02:54:20;98472.44;;;11.46;68.27
11212;BME280;5663;50.864;12.096;2023-01-13T02:56:49;98504.09;;;11.65;68.17
11212;BME280;5663;50.864;12.096;2023-01-13T02:59:19;98502.19;;;11.67;68.21
11212;BME280;5663;50.864;12.096;2023-01-13T03:01:55;98504.09;;;11.65;68.40
11212;BME280;5663;50.864;12.096;2023-01-13T03:04:44;98504.91;;;11.66;68.31
11212;BME280;5663;50.864;12.096;2023-01-13T03:07:29;98504.09;;;11.65;68.33
11212;BME280;5663;50.864;12.096;2023-01-13T03:10:06;98493.66;;;11.65;68.28
11212;BME280;5663;50.864;12.096;2023-01-13T03:12:42;98489.50;;;11.63;68.35
11212;BME280;5663;50.864;12.096;2023-01-13T03:15:16;98490.31;;;11.63;68.59
11212;BME280;5663;50.864;12.096;2023-01-13T03:18:00;98502.41;;;11.64;68.25
11212;BME280;5663;50.864;12.096;2023-01-13T03:20:37;98498.25;;;11.62;68.32
11212;BME280;5663;50.864;12.096;2023-01-13T03:23:16;98421.66;;;11.15;68.48
11212;BME280;5663;50.864;12.096;2023-01-13T03:25:50;98492.22;;;11.61;68.33
11212;BME280;5663;50.864;12.096;2023-01-13T03:28:24;98493.38;;;11.57;68.34
11212;BME280;5663;50.864;12.096;2023-01-13T03:30:58;98496.06;;;11.55;68.63
11212;BME280;5663;50.864;12.096;2023-01-13T03:33:32;98478.03;;;11.52;68.33
11212;BME280;5663;50.864;12.096;2023-01-13T03:36:03;98478.66;;;11.56;68.49
11212;BME280;5663;50.864;12.096;2023-01-13T03:38:34;98456.41;;;11.39;68.49
11212;BME280;5663;50.864;12.096;2023-01-13T03:41:06;98473.91;;;11.50;68.44
11212;BME280;5663;50.864;12.096;2023-01-13T03:43:38;98479.63;;;11.42;68.60
11212;BME280;5663;50.864;12.096;2023-01-13T03:46:28;98485.78;;;11.41;68.69
11212;BME280;5663;50.864;12.096;2023-01-13T03:49:01;98480.66;;;11.40;68.83
11212;BME280;5663;50.864;12.096;2023-01-13T03:51:35;98490.38;;;11.38;68.82
11212;BME280;5663;50.864;12.096;2023-01-13T03:54:07;98492.22;;;11.35;68.76
11212;BME280;5663;50.864;12.096;2023-01-13T03:56:41;98497.44;;;11.35;68.72
11212;BME280;5663;50.864;12.096;2023-01-13T03:59:12;98496.91;;;11.30;68.57
11212;BME280;5663;50.864;12.096;2023-01-13T04:01:47;98499.72;;;11.27;68.79
11212;BME280;5663;50.864;12.096;2023-01-13T04:04:23;98499.91;;;11.24;68.95
11212;BME280;5663;50.864;12.096;2023-01-13T04:06:55;98489.00;;;11.19;68.84
11212;BME280;5663;50.864;12.096;2023-01-13T04:09:30;98497.84;;;11.17;69.28
11212;BME280;5663;50.864;12.096;2023-01-13T04:12:06;98501.06;;;11.20;69.27
11212;BME280;5663;50.864;12.096;2023-01-13T04:14:35;98496.81;;;11.19;69.35
11212;BME280;5663;50.864;12.096;2023-01-13T04:17:04;98495.16;;;11.18;69.33
11212;BME280;5663;50.864;12.096;2023-01-13T04:19:34;98496.09;;;11.17;69.43
11212;BME280;5663;50.864;12.096;2023-01-13T04:22:02;98490.88;;;11.17;69.53
11212;BME280;5663;50.864;12.096;2023-01-13T04:24:32;98503.91;;;11.17;69.57
11212;BME280;5663;50.864;12.096;2023-01-13T04:27:01;98496.81;;;11.19;69.46
11212;BME280;5663;50.864;12.096;2023-01-13T04:29:29;98490.78;;;11.19;69.53
11212;BME280;5663;50.864;12.096;2023-01-13T04:31:57;98495.84;;;11.20;69.44
11212;BME280;5663;50.864;12.096;2023-01-13T04:34:25;98488.88;;;11.21;69.38
11212;BME280;5663;50.864;12.096;2023-01-13T04:36:54;98488.78;;;11.22;69.55
11212;BME280;5663;50.864;12.096;2023-01-13T04:39:22;98483.47;;;11.24;69.34
11212;BME280;5663;50.864;12.096;2023-01-13T04:41:53;98484.41;;;11.23;69.39
11212;BME280;5663;50.864;12.096;2023-01-13T04:44:29;98476.72;;;11.21;69.43
11212;BME280;5663;50.864;12.096;2023-01-13T04:47:00;98479.53;;;11.18;69.38
11212;BME280;5663;50.864;12.096;2023-01-13T04:49:29;98476.19;;;11.16;69.58
11212;BME280;5663;50.864;12.096;2023-01-13T04:51:59;98484.94;;;11.15;69.53
11212;BME280;5663;50.864;12.096;2023-01-13T04:54:28;98486.81;;;11.13;69.62
11212;BME280;5663;50.864;12.096;2023-01-13T04:56:56;98491.28;;;11.11;69.66
11212;BME280;5663;50.864;12.096;2023-01-13T04:59:29;98501.38;;;11.16;69.66
11212;BME280;5663;50.864;12.096;2023-01-13T05:01:56;98488.28;;;11.17;69.88
11212;BME280;5663;50.864;12.096;2023-01-13T05:04:24;98498.47;;;11.20;69.91
11212;BME280;5663;50.864;12.096;2023-01-13T05:06:53;98495.16;;;11.18;70.13
11212;BME280;5663;50.864;12.096;2023-01-13T05:09:22;98499.22;;;11.22;69.91
11212;BME280;5663;50.864;12.096;2023-01-13T05:11:50;98492.22;;;11.23;69.82
11212;BME280;5663;50.864;12.096;2023-01-13T05:14:37;98494.72;;;11.24;69.81
11212;BME280;5663;50.864;12.096;2023-01-13T05:17:23;98497.22;;;11.26;69.91
11212;BME280;5663;50.864;12.096;2023-01-13T05:19:51;98479.09;;;11.24;69.91
11212;BME280;5663;50.864;12.096;2023-01-13T05:22:19;98451.00;;;11.04;69.92
11212;BME280;5663;50.864;12.096;2023-01-13T05:25:07;98476.63;;;11.23;69.81
11212;BME280;5663;50.864;12.096;2023-01-13T05:27:48;98468.28;;;11.18;69.94
11212;BME280;5663;50.864;12.096;2023-01-13T05:30:17;98472.66;;;11.17;69.90
11212;BME280;5663;50.864;12.096;2023-01-13T05:32:46;98472.66;;;11.17;70.08
11212;BME280;5663;50.864;12.096;2023-01-13T05:35:15;98483.09;;;11.17;70.05
11212;BME280;5663;50.864;12.096;2023-01-13T05:37:44;98476.94;;;11.18;70.31
11212;BME280;5663;50.864;12.096;2023-01-13T05:40:16;98474.53;;;11.15;70.00
11212;BME280;5663;50.864;12.096;2023-01-13T05:43:04;98472.66;;;11.17;70.13
11212;BME280;5663;50.864;12.096;2023-01-13T05:45:48;98467.47;;;11.17;70.04
11212;BME280;5663;50.864;12.096;2023-01-13T05:48:18;98472.44;;;11.20;70.33
11212;BME280;5663;50.864;12.096;2023-01-13T05:50:46;98478.47;;;11.21;70.13
11212;BME280;5663;50.864;12.096;2023-01-13T05:53:16;98488.88;;;11.21;70.27
11212;BME280;5663;50.864;12.096;2023-01-13T05:55:47;98484.53;;;11.21;70.22
11212;BME280;5663;50.864;12.096;2023-01-13T05:58:19;98465.47;;;11.08;70.17
11212;BME280;5663;50.864;12.096;2023-01-13T06:00:47;98486.00;;;11.25;70.35
11212;BME280;5663;50.864;12.096;2023-01-13T06:03:15;98484.94;;;11.28;70.26
11212;BME280;5663;50.864;12.096;2023-01-13T06:05:45;98452.66;;;11.05;70.53
11212;BME280;5663;50.864;12.096;2023-01-13T06:08:13;98490.97;;;11.28;70.71
11212;BME280;5663;50.864;12.096;2023-01-13T06:10:41;98480.78;;;11.25;70.62
11212;BME280;5663;50.864;12.096;2023-01-13T06:13:10;98491.59;;;11.32;70.50
11212;BME280;5663;50.864;12.096;2023-01-13T06:15:38;98491.41;;;11.35;70.44
11212;BME280;5663;50.864;12.096;2023-01-13T06:18:06;98493.88;;;11.37;70.40
11212;BME280;5663;50.864;12.096;2023-01-13T06:20:35;98450.41;;;11.13;70.63
11212;BME280;5663;50.864;12.096;2023-01-13T06:23:03;98478.06;;;11.40;70.60
11212;BME280;5663;50.864;12.096;2023-01-13T06:25:38;98454.75;;;11.25;70.45
11212;BME280;5663;50.864;12.096;2023-01-13T06:28:09;98460.56;;;11.29;70.42
11212;BME280;5663;50.864;12.096;2023-01-13T06:30:42;98480.47;;;11.43;70.66
11212;BME280;5663;50.864;12.096;2023-01-13T06:33:13;98472.66;;;11.43;70.54
11212;BME280;5663;50.864;12.096;2023-01-13T06:35:44;98469.09;;;11.44;70.61
11212;BME280;5663;50.864;12.096;2023-01-13T06:38:14;98470.03;;;11.43;70.65
11212;BME280;5663;50.864;12.096;2023-01-13T06:40:45;98467.44;;;11.43;70.58
11212;BME280;5663;50.864;12.096;2023-01-13T06:43:15;98465.53;;;11.45;70.73
11212;BME280;5663;50.864;12.096;2023-01-13T06:45:45;98462.03;;;11.46;70.70
11212;BME280;5663;50.864;12.096;2023-01-13T06:48:14;98451.81;;;11.43;70.74
11212;BME280;5663;50.864;12.096;2023-01-13T06:50:43;98455.75;;;11.48;70.72
11212;BME280;5663;50.864;12.096;2023-01-13T06:53:10;98452.31;;;11.48;70.77
11212;BME280;5663;50.864;12.096;2023-01-13T06:55:38;98448.06;;;11.47;70.74
11212;BME280;5663;50.864;12.096;2023-01-13T06:58:05;98452.31;;;11.48;70.75
11212;BME280;5663;50.864;12.096;2023-01-13T07:00:34;98456.59;;;11.49;70.81
11212;BME280;5663;50.864;12.096;2023-01-13T07:03:08;98451.38;;;11.49;70.65
11212;BME280;5663;50.864;12.096;2023-01-13T07:05:36;98448.56;;;11.52;70.81
11212;BME280;5663;50.864;12.096;2023-01-13T07:08:04;98447.03;;;11.49;70.51
11212;BME280;5663;50.864;12.096;2023-01-13T07:10:33;98440.97;;;11.49;70.48
11212;BME280;5663;50.864;12.096;2023-01-13T07:13:02;98460.97;;;11.48;70.66
11212;BME280;5663;50.864;12.096;2023-01-13T07:15:56;98443.06;;;11.44;70.58
11212;BME280;5663;50.864;12.096;2023-01-13T07:18:25;98451.00;;;11.42;70.62
11212;BME280;5663;50.864;12.096;2023-01-13T07:20:54;98451.81;;;11.43;70.87
11212;BME280;5663;50.864;12.096;2023-01-13T07:23:22;98461.41;;;11.42;70.96
11212;BME280;5663;50.864;12.096;2023-01-13T07:25:50;98457.84;;;11.43;70.96
11212;BME280;5663;50.864;12.096;2023-01-13T07:28:17;98437.34;;;11.39;71.00
11212;BME280;5663;50.864;12.096;2023-01-13T07:30:45;98452.31;;;11.48;70.95
11212;BME280;5663;50.864;12.096;2023-01-13T07:33:14;98444.50;;;11.48;70.87
11212;BME280;5663;50.864;12.096;2023-01-13T07:35:43;98424.34;;;11.39;70.97
11212;BME280;5663;50.864;12.096;2023-01-13T07:38:11;98447.84;;;11.50;70.89
11212;BME280;5663;50.864;12.096;2023-01-13T07:40:39;98440.91;;;11.38;71.20
11212;BME280;5663;50.864;12.096;2023-01-13T07:43:07;98509.09;;;11.43;71.27
11212;BME280;5663;50.864;12.096;2023-01-13T07:45:56;98534.69;;;11.23;71.91
11212;BME280;5663;50.864;12.096;2023-01-13T07:48:26;98515.22;;;11.03;71.89
11212;BME280;5663;50.864;12.096;2023-01-13T07:50:54;98555.59;;;11.09;71.79
11212;BME280;5663;50.864;12.096;2023-01-13T07:53:22;98556.53;;;11.08;72.26
11212;BME280;5663;50.864;12.096;2023-01-13T07:55:54;98535.88;;;10.79;72.45
11212;BME280;5663;50.864;12.096;2023-01-13T07:58:24;98577.31;;;10.95;72.59
11212;BME280;5663;50.864;12.096;2023-01-13T08:00:52;98563.53;;;10.80;72.53
11212;BME280;5663;50.864;12.096;2023-01-13T08:03:20;98571.97;;;10.84;72.63
11212;BME280;5663;50.864;12.096;2023-01-13T08:05:49;98570.81;;;10.75;72.61
11212;BME280;5663;50.864;12.096;2023-01-13T08:08:17;98511.16;;;10.32;73.05
11212;BME280;5663;50.864;12.096;2023-01-13T08:10:45;98481.16;;;10.00;72.86
11212;BME280;5663;50.864;12.096;2023-01-13T08:13:15;98511.91;;;10.20;73.03
11212;BME280;5663;50.864;12.096;2023-01-13T08:15:47;98561.53;;;10.44;73.05
11212;BME280;5663;50.864;12.096;2023-01-13T08:18:16;98563.00;;;10.48;73.07
11212;BME280;5663;50.864;12.096;2023-01-13T08:20:45;98562.09;;;10.49;73.11
11212;BME280;5663;50.864;12.096;2023-01-13T08:23:15;98568.19;;;10.48;73.29
11212;BME280;5663;50.864;12.096;2023-01-13T08:25:43;98515.63;;;10.16;73.33
11212;BME280;5663;50.864;12.096;2023-01-13T08:28:11;98569.25;;;10.46;73.54
11212;BME280;5663;50.864;12.096;2023-01-13T08:30:39;98577.97;;;10.45;73.59
11212;BME280;5663;50.864;12.096;2023-01-13T08:33:07;98574.63;;;10.43;73.47
11212;BME280;5663;50.864;12.096;2023-01-13T08:35:36;98585.03;;;10.43;73.60
11212;BME280;5663;50.864;12.096;2023-01-13T08:38:04;98585.22;;;10.40;73.71
11212;BME280;5663;50.864;12.096;2023-01-13T08:40:33;98597.28;;;10.41;73.66
11212;BME280;5663;50.864;12.096;2023-01-13T08:43:02;98600.81;;;10.40;73.52
11212;BME280;5663;50.864;12.096;2023-01-13T08:45:31;98593.94;;;10.39;74.09
11212;BME280;5663;50.864;12.096;2023-01-13T08:47:59;98583.03;;;10.33;74.00
11212;BME280;5663;50.864;12.096;2023-01-13T08:50:27;98600.81;;;10.40;73.98
11212;BME280;5663;50.864;12.096;2023-01-13T08:52:55;98580.41;;;10.33;73.97
11212;BME280;5663;50.864;12.096;2023-01-13T08:55:23;98590.41;;;10.40;74.02
11212;BME280;5663;50.864;12.096;2023-01-13T08:57:52;98605.28;;;10.38;74.13
11212;BME280;5663;50.864;12.096;2023-01-13T09:00:26;98554.66;;;10.02;74.16
11212;BME280;5663;50.864;12.096;2023-01-13T09:03:23;98620.31;;;10.32;74.22
11212;BME280;5663;50.864;12.096;2023-01-13T09:06:07;98623.84;;;10.31;74.15
11212;BME280;5663;50.864;12.096;2023-01-13T09:08:34;98554.34;;;9.92;74.10
11212;BME280;5663;50.864;12.096;2023-01-13T09:11:02;98609.84;;;10.34;74.10
11212;BME280;5663;50.864;12.096;2023-01-13T09:13:52;98592.66;;;10.31;73.94
11212;BME280;5663;50.864;12.096;2023-01-13T09:16:19;98574.91;;;10.24;73.99
11212;BME280;5663;50.864;12.096;2023-01-13T09:18:46;98600.28;;;10.34;74.15
11212;BME280;5663;50.864;12.096;2023-01-13T09:21:14;98585.41;;;10.36;74.24
11212;BME280;5663;50.864;12.096;2023-01-13T09:23:44;98529.94;;;10.09;74.21
11212;BME280;5663;50.864;12.096;2023-01-13T09:26:13;98554.97;;;10.24;74.60
11212;BME280;5663;50.864;12.096;2023-01-13T09:28:43;98522.13;;;10.09;74.29
11212;BME280;5663;50.864;12.096;2023-01-13T09:31:12;98557.56;;;10.39;74.22
11212;BME280;5663;50.864;12.096;2023-01-13T09:33:39;98527.31;;;10.23;74.28
11212;BME280;5663;50.864;12.096;2023-01-13T09:36:24;98560.06;;;10.40;74.13
11212;BME280;5663;50.864;12.096;2023-01-13T09:38:52;98536.63;;;10.27;74.25
11212;BME280;5663;50.864;12.096;2023-01-13T09:41:21;98554.03;;;10.40;74.09
11212;BME280;5663;50.864;12.096;2023-01-13T09:44:06;98547.47;;;10.20;73.91
11212;BME280;5663;50.864;12.096;2023-01-13T09:46:42;98586.22;;;10.37;73.93
11212;BME280;5663;50.864;12.096;2023-01-13T09:49:18;98570.75;;;10.35;74.05
11212;BME280;5663;50.864;12.096;2023-01-13T09:51:52;98580.41;;;10.33;74.08
11212;BME280;5663;50.864;12.096;2023-01-13T09:54:28;98588.00;;;10.36;74.26
11212;BME280;5663;50.864;12.096;2023-01-13T09:56:57;98583.44;;;10.40;74.07
11212;BME280;5663;50.864;12.096;2023-01-13T09:59:26;98586.69;;;10.44;74.20
11212;BME280;5663;50.864;12.096;2023-01-13T10:02:06;98588.16;;;10.48;74.19
11212;BME280;5663;50.864;12.096;2023-01-13T10:04:41;98593.38;;;10.48;74.06
11212;BME280;5663;50.864;12.096;2023-01-13T10:07:12;98593.38;;;10.48;74.03
11212;BME280;5663;50.864;12.096;2023-01-13T10:09:45;98604.59;;;10.48;73.91
11212;BME280;5663;50.864;12.096;2023-01-13T10:12:21;98596.72;;;10.50;74.08
11212;BME280;5663;50.864;12.096;2023-01-13T10:15:12;98569.28;;;10.31;74.25
11212;BME280;5663;50.864;12.096;2023-01-13T10:17:47;98589.63;;;10.52;74.38
11212;BME280;5663;50.864;12.096;2023-01-13T10:20:20;98591.31;;;10.53;74.50
11212;BME280;5663;50.864;12.096;2023-01-13T10:22:57;98589.56;;;10.53;74.57
11212;BME280;5663;50.864;12.096;2023-01-13T10:28:23;98581.75;;;10.53;74.36
11212;BME280;5663;50.864;12.096;2023-01-13T10:30:51;98577.59;;;10.51;74.33
11212;BME280;5663;50.864;12.096;2023-01-13T10:33:22;98581.84;;;10.52;74.22
11212;BME280;5663;50.864;12.096;2023-01-13T10:35:56;98574.22;;;10.49;74.05
11212;BME280;5663;50.864;12.096;2023-01-13T10:38:27;98584.25;;;10.55;73.94
11212;BME280;5663;50.864;12.096;2023-01-13T10:40:57;98587.78;;;10.54;73.97
11212;BME280;5663;50.864;12.096;2023-01-13T10:43:25;98578.59;;;10.48;73.93
11212;BME280;5663;50.864;12.096;2023-01-13T10:45:59;98583.50;;;10.53;73.92
11212;BME280;5663;50.864;12.096;2023-01-13T10:48:37;98490.63;;;10.01;73.80
11212;BME280;5663;50.864;12.096;2023-01-13T10:51:27;98579.78;;;10.57;73.92
11212;BME280;5663;50.864;12.096;2023-01-13T10:54:18;98578.66;;;10.61;73.46
11212;BME280;5663;50.864;12.096;2023-01-13T10:57:14;98584.41;;;10.66;73.30
11212;BME280;5663;50.864;12.096;2023-01-13T10:59:44;98583.47;;;10.67;73.07
11212;BME280;5663;50.864;12.096;2023-01-13T11:02:19;98558.78;;;10.60;73.11
11212;BME280;5663;50.864;12.096;2023-01-13T11:05:02;98562.84;;;10.64;72.89
11212;BME280;5663;50.864;12.096;2023-01-13T11:07:38;98572.06;;;10.70;72.76
11212;BME280;5663;50.864;12.096;2023-01-13T11:10:15;98563.94;;;10.74;72.77
11212;BME280;5663;50.864;12.096;2023-01-13T11:12:49;98565.41;;;10.78;72.87
11212;BME280;5663;50.864;12.096;2023-01-13T11:15:20;98570.22;;;10.84;72.92
11212;BME280;5663;50.864;12.096;2023-01-13T11:17:52;98576.16;;;10.87;72.53
11212;BME280;5663;50.864;12.096;2023-01-13T11:20:31;98569.19;;;10.87;72.07
11212;BME280;5663;50.864;12.096;2023-01-13T11:23:06;98541.69;;;10.70;71.85
11212;BME280;5663;50.864;12.096;2023-01-13T11:25:41;98566.63;;;10.73;72.11
11212;BME280;5663;50.864;12.096;2023-01-13T11:28:25;98576.00;;;10.75;71.97
11212;BME280;5663;50.864;12.096;2023-01-13T11:31:03;98553.25;;;10.52;71.53
11212;BME280;5663;50.864;12.096;2023-01-13T11:33:38;98597.84;;;10.73;71.44
11212;BME280;5663;50.864;12.096;2023-01-13T11:36:14;98583.84;;;10.61;71.39
11212;BME280;5663;50.864;12.096;2023-01-13T11:38:47;98570.72;;;10.50;71.09
11212;BME280;5663;50.864;12.096;2023-01-13T11:41:30;98605.94;;;10.68;70.82
11212;BME280;5663;50.864;12.096;2023-01-13T11:44:05;98600.91;;;10.65;70.73
11212;BME280;5663;50.864;12.096;2023-01-13T11:46:37;98582.31;;;10.44;70.58
11212;BME280;5663;50.864;12.096;2023-01-13T11:49:10;98611.97;;;10.69;70.54
11212;BME280;5663;50.864;12.096;2023-01-13T11:51:49;98624.06;;;10.70;70.34
11212;BME280;5663;50.864;12.096;2023-01-13T11:54:43;98631.75;;;10.71;70.16
11212;BME280;5663;50.864;12.096;2023-01-13T11:57:31;98629.16;;;10.71;70.05
11212;BME280;5663;50.864;12.096;2023-01-13T12:00:14;98551.53;;;10.24;69.88
11212;BME280;5663;50.864;12.096;2023-01-13T12:02:56;98565.19;;;10.27;69.41
11212;BME280;5663;50.864;12.096;2023-01-13T12:05:35;98626.38;;;10.60;69.57
11212;BME280;5663;50.864;12.096;2023-01-13T12:08:16;98610.91;;;10.44;69.70
11212;BME280;5663;50.864;12.096;2023-01-13T12:10:56;98627.31;;;10.59;69.61
11212;BME280;5663;50.864;12.096;2023-01-13T12:13:35;98637.53;;;10.62;69.57
11212;BME280;5663;50.864;12.096;2023-01-13T12:16:20;98622.50;;;10.53;69.57
11212;BME280;5663;50.864;12.096;2023-01-13T12:19:17;98626.31;;;10.62;69.29
11212;BME280;5663;50.864;12.096;2023-01-13T12:22:01;98618.06;;;10.55;69.09
11212;BME280;5663;50.864;12.096;2023-01-13T12:24:35;98628.69;;;10.65;68.97
11212;BME280;5663;50.864;12.096;2023-01-13T12:27:11;98578.34;;;10.39;69.00
11212;BME280;5663;50.864;12.096;2023-01-13T12:29:42;98619.88;;;10.67;68.85
11212;BME280;5663;50.864;12.096;2023-01-13T12:32:14;98610.59;;;10.63;68.74
11212;BME280;5663;50.864;12.096;2023-01-13T12:35:02;98618.84;;;10.70;68.38
11212;BME280;5663;50.864;12.096;2023-01-13T12:37:36;98587.16;;;10.50;68.43
11212;BME280;5663;50.864;12.096;2023-01-13T12:40:20;98592.78;;;10.57;68.35
11212;BME280;5663;50.864;12.096;2023-01-13T12:42:57;98588.16;;;10.48;68.32
11212;BME280;5663;50.864;12.096;2023-01-13T12:45:43;98623.50;;;10.65;68.27
11212;BME280;5663;50.864;12.096;2023-01-13T12:48:43;98633.16;;;10.63;67.87
11212;BME280;5663;50.864;12.096;2023-01-13T12:51:21;98612.84;;;10.55;67.92
11212;BME280;5663;50.864;12.096;2023-01-13T12:53:50;98622.50;;;10.53;68.08
11212;BME280;5663;50.864;12.096;2023-01-13T12:56:40;98631.56;;;10.74;67.47
11212;BME280;5663;50.864;12.096;2023-01-13T12:59:33;98579.44;;;10.49;66.86
11212;BME280;5663;50.864;12.096;2023-01-13T13:02:35;98624.28;;;10.79;66.76
11212;BME280;5663;50.864;12.096;2023-01-13T13:05:40;98625.97;;;10.80;66.52
11212;BME280;5663;50.864;12.096;2023-01-13T13:08:17;98584.06;;;10.58;66.33
11212;BME280;5663;50.864;12.096;2023-01-13T13:10:59;98627.72;;;10.80;66.45
11212;BME280;5663;50.864;12.096;2023-01-13T13:13:44;98601.97;;;10.63;66.44
11212;BME280;5663;50.864;12.096;2023-01-13T13:16:33;98628.56;;;10.80;66.18
11212;BME280;5663;50.864;12.096;2023-01-13T13:19:43;98645.63;;;10.84;66.21
11212;BME280;5663;50.864;12.096;2023-01-13T13:25:23;98651.44;;;10.75;65.46
11212;BME280;5663;50.864;12.096;2023-01-13T13:30:56;98647.72;;;10.65;65.60
11212;BME280;5663;50.864;12.096;2023-01-13T13:33:46;98660.19;;;10.60;65.53
11212;BME280;5663;50.864;12.096;2023-01-13T13:36:38;98658.47;;;10.46;65.48
11212;BME280;5663;50.864;12.096;2023-01-13T13:39:19;98665.13;;;10.50;65.36
11212;BME280;5663;50.864;12.096;2023-01-13T13:42:11;98660.78;;;10.36;65.41
11212;BME280;5663;50.864;12.096;2023-01-13T13:44:58;98674.59;;;10.37;65.41